createdAt,value
2023-04-21T00:01:39.572Z,21.10
2023-04-21T00:04:08.435Z,22.70
2023-04-21T00:06:36.909Z,24.10
2023-04-21T00:09:05.550Z,23.10
2023-04-21T00:11:33.402Z,24.60
2023-04-21T00:14:01.254Z,23.90
2023-04-21T00:16:29.282Z,23.90
2023-04-21T00:18:57.094Z,23.20
2023-04-21T00:21:25.409Z,25.20
2023-04-21T00:23:53.296Z,25.00
2023-04-21T00:26:21.302Z,22.30
2023-04-21T00:28:49.523Z,22.90
2023-04-21T00:31:17.630Z,26.10
2023-04-21T00:33:45.777Z,23.40
2023-04-21T00:36:13.762Z,27.30
2023-04-21T00:38:41.576Z,23.90
2023-04-21T00:41:09.949Z,24.60
2023-04-21T00:44:02.849Z,24.40
2023-04-21T00:46:33.651Z,26.00
2023-04-21T00:49:05.976Z,22.70
2023-04-21T00:51:35.806Z,24.00
2023-04-21T00:54:08.236Z,25.10
2023-04-21T00:56:37.017Z,24.40
2023-04-21T00:59:05.040Z,27.00
2023-04-21T01:01:34.500Z,27.30
2023-04-21T01:04:04.801Z,25.30
2023-04-21T01:06:36.775Z,25.40
2023-04-21T01:09:05.390Z,25.00
2023-04-21T01:11:33.529Z,27.30
2023-04-21T01:14:01.607Z,22.80
2023-04-21T01:16:29.777Z,24.50
2023-04-21T01:18:59.241Z,25.70
2023-04-21T01:21:29.116Z,25.10
2023-04-21T01:23:57.632Z,25.80
2023-04-21T01:26:25.576Z,22.90
2023-04-21T01:28:57.343Z,23.00
2023-04-21T01:31:27.393Z,23.50
2023-04-21T01:33:55.716Z,23.50
2023-04-21T01:36:23.621Z,23.90
2023-04-21T01:38:53.738Z,25.10
2023-04-21T01:41:23.648Z,27.90
2023-04-21T01:43:51.570Z,29.30
2023-04-21T01:46:21.074Z,23.90
2023-04-21T01:48:49.134Z,25.40
2023-04-21T01:51:17.057Z,24.50
2023-04-21T01:53:45.252Z,24.60
2023-04-21T01:56:15.968Z,24.10
2023-04-21T01:58:43.774Z,24.40
2023-04-21T02:01:11.705Z,24.60
2023-04-21T02:03:40.708Z,25.20
2023-04-21T02:06:09.533Z,23.60
2023-04-21T02:08:37.408Z,26.30
2023-04-21T02:11:05.336Z,25.10
2023-04-21T02:13:33.176Z,25.90
2023-04-21T02:16:12.704Z,22.10
2023-04-21T02:18:41.704Z,28.30
2023-04-21T02:21:09.555Z,26.30
2023-04-21T02:23:37.477Z,26.30
2023-04-21T02:26:05.513Z,23.50
2023-04-21T02:28:33.553Z,24.40
2023-04-21T02:31:01.494Z,27.10
2023-04-21T02:33:29.940Z,26.70
2023-04-21T02:35:57.855Z,26.60
2023-04-21T02:38:25.672Z,24.60
2023-04-21T02:40:53.643Z,26.30
2023-04-21T02:43:21.643Z,24.90
2023-04-21T02:45:51.179Z,26.00
2023-04-21T02:48:28.483Z,29.10
2023-04-21T02:50:56.410Z,28.80
2023-04-21T02:53:24.297Z,24.00
2023-04-21T02:55:52.966Z,23.70
2023-04-21T02:58:20.849Z,23.00
2023-04-21T03:00:48.865Z,22.80
2023-04-21T03:03:17.116Z,27.00
2023-04-21T03:05:45.278Z,24.30
2023-04-21T03:08:13.464Z,27.70
2023-04-21T03:10:41.537Z,27.20
2023-04-21T03:13:09.570Z,28.70
2023-04-21T03:15:37.488Z,25.40
2023-04-21T03:18:05.958Z,27.90
2023-04-21T03:20:34.102Z,26.50
2023-04-21T03:23:01.979Z,26.80
2023-04-21T03:25:29.836Z,28.00
2023-04-21T03:27:57.811Z,28.70
2023-04-21T03:30:26.788Z,27.50
2023-04-21T03:32:58.984Z,30.50
2023-04-21T03:35:27.673Z,28.50
2023-04-21T03:37:55.623Z,32.10
2023-04-21T03:40:23.618Z,25.20
2023-04-21T03:42:51.706Z,31.50
2023-04-21T03:45:22.618Z,29.50
2023-04-21T03:47:55.763Z,29.60
2023-04-21T03:50:23.939Z,30.40
2023-04-21T03:52:51.777Z,28.50
2023-04-21T03:55:19.754Z,29.20
2023-04-21T03:57:47.662Z,27.40
2023-04-21T04:00:16.170Z,34.80
2023-04-21T04:02:44.204Z,30.10
2023-04-21T04:05:12.578Z,28.30
2023-04-21T04:07:40.816Z,24.90
2023-04-21T04:10:08.823Z,27.30
2023-04-21T04:12:36.813Z,30.20
2023-04-21T04:15:05.062Z,30.20
2023-04-21T04:17:32.976Z,28.80
2023-04-21T04:20:01.953Z,28.50
2023-04-21T04:22:29.762Z,61.00
2023-04-21T04:24:59.801Z,69.30
2023-04-21T04:27:28.651Z,44.40
2023-04-21T04:29:57.743Z,36.50
2023-04-21T04:32:28.759Z,31.80
2023-04-21T04:34:57.115Z,37.80
2023-04-21T04:37:25.596Z,32.20
2023-04-21T04:39:54.439Z,33.70
2023-04-21T04:42:22.290Z,27.80
2023-04-21T04:44:54.132Z,31.00
2023-04-21T04:47:22.041Z,29.80
2023-04-21T04:49:49.998Z,34.60
2023-04-21T04:52:17.910Z,30.90
2023-04-21T04:54:45.864Z,33.80
2023-04-21T04:57:13.651Z,26.50
2023-04-21T04:59:41.565Z,24.00
2023-04-21T05:02:10.689Z,23.70
2023-04-21T05:04:39.519Z,25.60
2023-04-21T05:07:07.978Z,24.10
2023-04-21T05:09:35.987Z,22.80
2023-04-21T05:12:04.045Z,23.40
2023-04-21T05:14:31.934Z,22.50
2023-04-21T05:17:00.030Z,25.40
2023-04-21T05:19:28.208Z,25.10
2023-04-21T05:22:02.722Z,23.60
2023-04-21T05:24:30.609Z,21.90
2023-04-21T05:26:58.517Z,27.50
2023-04-21T05:29:26.467Z,23.50
2023-04-21T05:31:54.389Z,22.70
2023-04-21T05:34:22.323Z,20.20
2023-04-21T05:36:50.326Z,20.90
2023-04-21T05:39:18.549Z,17.60
2023-04-21T05:41:46.454Z,20.30
2023-04-21T05:44:18.321Z,23.20
2023-04-21T05:46:46.404Z,23.80
2023-04-21T05:49:14.325Z,25.50
2023-04-21T05:51:42.226Z,25.70
2023-04-21T05:54:10.119Z,21.90
2023-04-21T05:56:37.951Z,24.10
2023-04-21T05:59:07.121Z,22.20
2023-04-21T06:01:35.053Z,22.10
2023-04-21T06:04:03.222Z,22.20
2023-04-21T06:06:31.922Z,26.10
2023-04-21T06:09:00.062Z,20.70
2023-04-21T06:11:28.028Z,23.70
2023-04-21T06:13:58.566Z,21.10
2023-04-21T06:16:27.273Z,20.00
2023-04-21T06:18:55.378Z,20.90
2023-04-21T06:21:23.208Z,24.20
2023-04-21T06:23:51.292Z,17.90
2023-04-21T06:26:19.152Z,19.10
2023-04-21T06:28:47.115Z,17.20
2023-04-21T06:31:15.781Z,21.30
2023-04-21T06:33:44.093Z,23.80
2023-04-21T06:36:12.051Z,20.50
2023-04-21T06:38:41.762Z,17.60
2023-04-21T06:41:10.543Z,19.20
2023-04-21T06:43:38.416Z,16.10
2023-04-21T06:46:06.395Z,15.60
2023-04-21T06:48:34.308Z,17.80
2023-04-21T06:51:02.886Z,16.40
2023-04-21T06:53:31.338Z,16.10
2023-04-21T06:55:59.391Z,16.20
2023-04-21T06:58:27.320Z,16.60
2023-04-21T07:00:55.339Z,18.30
2023-04-21T07:03:23.276Z,16.90
2023-04-21T07:05:51.615Z,17.40
2023-04-21T07:08:19.546Z,15.00
2023-04-21T07:10:47.493Z,13.10
2023-04-21T07:13:16.114Z,16.00
2023-04-21T07:15:43.975Z,14.50
2023-04-21T07:18:11.987Z,13.20
2023-04-21T07:20:40.058Z,13.10
2023-04-21T07:23:07.923Z,15.20
2023-04-21T07:25:35.800Z,15.80
2023-04-21T07:28:04.475Z,15.30
2023-04-21T07:30:32.452Z,14.90
2023-04-21T07:33:00.866Z,13.00
2023-04-21T07:35:28.883Z,14.20
2023-04-21T07:37:56.918Z,15.50
2023-04-21T07:40:24.977Z,15.10
2023-04-21T07:42:52.817Z,18.00
2023-04-21T07:45:21.083Z,14.80
2023-04-21T07:47:49.055Z,12.00
2023-04-21T07:50:17.266Z,13.20
2023-04-21T07:52:45.091Z,14.20
2023-04-21T07:55:12.954Z,12.90
2023-04-21T07:57:41.012Z,14.20
2023-04-21T08:00:10.505Z,14.90
2023-04-21T08:02:41.967Z,15.10
2023-04-21T08:05:10.832Z,12.50
2023-04-21T08:07:39.720Z,15.30
2023-04-21T08:10:08.770Z,14.30
2023-04-21T08:12:36.746Z,15.40
2023-04-21T08:15:07.761Z,13.60
2023-04-21T08:17:36.072Z,13.60
2023-04-21T08:20:05.664Z,12.30
2023-04-21T08:22:33.613Z,12.40
2023-04-21T08:25:01.453Z,12.50
2023-04-21T08:27:29.418Z,12.30
2023-04-21T08:29:57.290Z,13.30
2023-04-21T08:32:26.585Z,13.40
2023-04-21T08:34:54.842Z,13.70
2023-04-21T08:37:23.273Z,13.00
2023-04-21T08:39:51.356Z,9.80
2023-04-21T08:42:20.079Z,11.60
2023-04-21T08:44:48.019Z,12.00
2023-04-21T08:47:16.181Z,17.00
2023-04-21T08:49:47.275Z,10.80
2023-04-21T08:52:15.223Z,14.10
2023-04-21T08:54:43.428Z,11.60
2023-04-21T08:57:15.803Z,14.90
2023-04-21T08:59:45.654Z,11.40
2023-04-21T09:02:19.114Z,14.20
2023-04-21T09:04:54.943Z,11.40
2023-04-21T09:07:36.770Z,12.00
2023-04-21T09:10:06.455Z,11.30
2023-04-21T09:12:34.479Z,12.20
2023-04-21T09:15:06.436Z,10.60
2023-04-21T09:17:36.386Z,14.00
2023-04-21T09:20:24.904Z,10.40
2023-04-21T09:22:53.337Z,12.50
2023-04-21T09:25:21.835Z,10.50
2023-04-21T09:27:49.904Z,11.10
2023-04-21T09:30:20.938Z,12.40
2023-04-21T09:32:49.655Z,12.00
2023-04-21T09:35:17.598Z,12.20
2023-04-21T09:37:45.553Z,14.20
2023-04-21T09:40:15.090Z,11.00
2023-04-21T09:42:44.681Z,18.10
2023-04-21T09:47:51.002Z,13.10
2023-04-21T09:50:41.802Z,12.60
2023-04-21T09:53:15.270Z,10.10
2023-04-21T09:55:46.645Z,12.10
2023-04-21T09:58:19.157Z,10.50
2023-04-21T10:00:47.721Z,14.10
2023-04-21T10:03:18.891Z,8.30
2023-04-21T10:05:47.093Z,8.80
2023-04-21T10:08:17.227Z,12.50
2023-04-21T10:10:46.063Z,7.60
2023-04-21T10:13:17.378Z,9.30
2023-04-21T10:15:45.389Z,8.00
2023-04-21T10:18:17.766Z,7.00
2023-04-21T10:20:59.032Z,7.70
2023-04-21T10:23:43.818Z,7.00
2023-04-21T10:26:29.789Z,6.10
2023-04-21T10:29:06.345Z,7.10
2023-04-21T10:31:51.371Z,9.20
2023-04-21T10:34:22.414Z,8.40
2023-04-21T10:36:56.584Z,7.90
2023-04-21T10:39:29.552Z,8.50
2023-04-21T10:42:20.934Z,11.40
2023-04-21T10:45:16.281Z,9.10
2023-04-21T10:47:49.108Z,7.40
2023-04-21T10:50:39.537Z,7.30
2023-04-21T10:53:11.390Z,8.00
2023-04-21T10:55:42.345Z,10.00
2023-04-21T10:58:10.482Z,10.10
2023-04-21T11:00:39.320Z,8.80
2023-04-21T11:03:08.256Z,7.80
2023-04-21T11:05:38.976Z,8.00
2023-04-21T11:08:15.851Z,7.00
2023-04-21T11:10:47.076Z,8.00
2023-04-21T11:13:15.666Z,7.70
2023-04-21T11:15:57.590Z,8.10
2023-04-21T11:18:37.535Z,7.10
2023-04-21T11:21:13.899Z,6.10
2023-04-21T11:23:47.971Z,8.90
2023-04-21T11:26:16.402Z,7.80
2023-04-21T11:28:47.900Z,7.20
2023-04-21T11:31:16.273Z,7.70
2023-04-21T11:33:44.325Z,9.80
2023-04-21T11:36:12.215Z,6.70
2023-04-21T11:38:41.487Z,6.30
2023-04-21T11:41:10.730Z,6.10
2023-04-21T11:43:39.062Z,8.70
2023-04-21T11:46:17.991Z,7.00
2023-04-21T11:48:46.708Z,7.50
2023-04-21T11:51:15.965Z,9.50
2023-04-21T11:53:47.020Z,9.10
2023-04-21T11:56:20.075Z,7.90
2023-04-21T11:58:51.605Z,8.20
2023-04-21T12:01:21.652Z,7.20
2023-04-21T12:03:54.866Z,8.10
2023-04-21T12:06:24.751Z,8.40
2023-04-21T12:09:01.240Z,7.60
2023-04-21T12:11:30.723Z,9.50
2023-04-21T12:13:59.329Z,8.50
2023-04-21T12:16:29.172Z,6.70
2023-04-21T12:18:57.916Z,7.80
2023-04-21T12:21:29.485Z,10.30
2023-04-21T12:23:57.595Z,9.40
2023-04-21T12:26:25.436Z,6.70
2023-04-21T12:28:53.717Z,9.60
2023-04-21T12:31:21.832Z,8.40
2023-04-21T12:33:49.751Z,4.90
2023-04-21T12:36:17.683Z,5.70
2023-04-21T12:38:45.655Z,6.60
2023-04-21T12:41:13.588Z,6.30
2023-04-21T12:43:41.602Z,8.80
2023-04-21T12:46:09.590Z,7.40
2023-04-21T12:48:38.007Z,7.60
2023-04-21T12:51:05.987Z,12.50
2023-04-21T12:53:34.059Z,5.20
2023-04-21T12:56:05.152Z,6.60
2023-04-21T12:58:33.789Z,5.90
2023-04-21T13:01:01.826Z,9.50
2023-04-21T13:03:30.037Z,8.50
2023-04-21T13:05:58.190Z,6.50
2023-04-21T13:08:26.363Z,6.00
2023-04-21T13:10:55.432Z,8.00
2023-04-21T13:13:23.474Z,7.00
2023-04-21T13:15:51.444Z,5.60
2023-04-21T13:18:19.438Z,5.60
2023-04-21T13:20:47.256Z,6.90
2023-04-21T13:23:16.165Z,6.70
2023-04-21T13:25:45.620Z,6.00
2023-04-21T13:28:17.051Z,5.70
2023-04-21T13:30:45.768Z,5.80
2023-04-21T13:33:13.995Z,4.10
2023-04-21T13:35:41.966Z,8.50
2023-04-21T13:38:09.985Z,6.40
2023-04-21T13:40:37.938Z,4.90
2023-04-21T13:43:05.944Z,7.80
2023-04-21T13:45:33.909Z,4.50
2023-04-21T13:48:02.011Z,6.10
2023-04-21T13:50:30.064Z,7.10
2023-04-21T13:52:57.995Z,6.70
2023-04-21T13:55:25.986Z,7.00
2023-04-21T13:57:54.383Z,5.30
2023-04-21T14:00:22.586Z,9.30
2023-04-21T14:02:50.644Z,5.50
2023-04-21T14:05:18.999Z,5.30
2023-04-21T14:07:47.127Z,6.50
2023-04-21T14:10:15.095Z,6.60
2023-04-21T14:12:45.069Z,6.10
2023-04-21T14:15:13.686Z,4.70
2023-04-21T14:17:42.114Z,5.90
2023-04-21T14:20:11.007Z,9.70
2023-04-21T14:22:38.927Z,5.40
2023-04-21T14:25:07.185Z,7.40
2023-04-21T14:27:35.364Z,9.20
2023-04-21T14:30:03.542Z,8.20
2023-04-21T14:32:31.498Z,5.00
2023-04-21T14:35:00.754Z,7.20
2023-04-21T14:37:29.001Z,6.40
2023-04-21T14:39:56.976Z,4.90
2023-04-21T14:42:24.868Z,5.80
2023-04-21T14:44:52.767Z,5.10
2023-04-21T14:47:22.227Z,6.60
2023-04-21T14:49:55.144Z,7.00
2023-04-21T14:52:27.205Z,6.20
2023-04-21T14:54:55.395Z,7.00
2023-04-21T14:57:25.107Z,9.90
2023-04-21T14:59:53.564Z,4.30
2023-04-21T15:02:22.453Z,4.20
2023-04-21T15:04:51.913Z,6.10
2023-04-21T15:07:24.249Z,3.90
2023-04-21T15:09:55.412Z,5.50
2023-04-21T15:12:23.617Z,6.70
2023-04-21T15:14:51.802Z,6.10
2023-04-21T15:17:19.747Z,5.60
2023-04-21T15:19:47.683Z,6.00
2023-04-21T15:22:16.374Z,6.50
2023-04-21T15:24:45.584Z,6.30
2023-04-21T15:27:13.457Z,4.50
2023-04-21T15:29:41.457Z,6.10
2023-04-21T15:32:09.770Z,6.80
2023-04-21T15:34:37.678Z,4.30
2023-04-21T15:37:05.689Z,8.20
2023-04-21T15:39:33.676Z,4.10
2023-04-21T15:42:02.005Z,5.70
2023-04-21T15:44:30.048Z,5.00
2023-04-21T15:46:58.066Z,5.80
2023-04-21T15:49:26.407Z,7.40
2023-04-21T15:51:55.956Z,6.70
2023-04-21T15:54:24.463Z,5.90
2023-04-21T15:56:52.497Z,9.00
2023-04-21T15:59:22.408Z,4.20
2023-04-21T16:01:52.828Z,5.60
2023-04-21T16:04:21.005Z,10.90
2023-04-21T16:06:49.739Z,5.10
2023-04-21T16:09:18.269Z,4.50
2023-04-21T16:11:46.141Z,6.50
2023-04-21T16:14:16.603Z,5.10
2023-04-21T16:16:45.937Z,8.70
2023-04-21T16:19:14.070Z,4.60
2023-04-21T16:21:42.580Z,5.10
2023-04-21T16:24:11.254Z,4.80
2023-04-21T16:26:39.425Z,8.30
2023-04-21T16:29:07.316Z,6.60
2023-04-21T16:31:35.315Z,4.80
2023-04-21T16:34:03.229Z,3.70
2023-04-21T16:36:32.607Z,9.50
2023-04-21T16:39:00.746Z,3.40
2023-04-21T16:41:30.455Z,19.80
2023-04-21T16:43:58.551Z,11.20
2023-04-21T16:46:26.646Z,35.20
2023-04-21T16:48:54.813Z,11.60
2023-04-21T16:51:22.792Z,511.60
2023-04-21T16:53:51.065Z,246.40
2023-04-21T16:56:20.476Z,87.80
2023-04-21T16:58:48.450Z,32.40
2023-04-21T17:01:16.506Z,48.50
2023-04-21T17:03:44.671Z,73.80
2023-04-21T17:06:17.417Z,76.40
2023-04-21T17:08:45.490Z,24.70
2023-04-21T17:11:13.460Z,28.40
2023-04-21T17:13:41.324Z,50.70
2023-04-21T17:16:09.302Z,25.00
2023-04-21T17:18:37.311Z,7.20
2023-04-21T17:21:06.298Z,5.70
2023-04-21T17:23:34.439Z,7.90
2023-04-21T17:26:03.722Z,5.80
2023-04-21T17:28:32.265Z,4.90
2023-04-21T17:31:13.619Z,6.70
2023-04-21T17:33:43.084Z,6.30
2023-04-21T17:36:12.510Z,6.60
2023-04-21T17:38:42.929Z,6.60
2023-04-21T17:41:11.662Z,8.00
2023-04-21T17:43:39.759Z,10.10
2023-04-21T17:46:07.905Z,11.60
2023-04-21T17:48:36.008Z,18.60
2023-04-21T17:51:04.150Z,7.60
2023-04-21T17:53:32.375Z,9.90
2023-04-21T17:56:00.395Z,4.80
2023-04-21T17:58:28.749Z,9.10
2023-04-21T18:00:57.142Z,6.70
2023-04-21T18:03:25.790Z,12.50
2023-04-21T18:05:55.564Z,9.30
2023-04-21T18:08:23.702Z,8.70
2023-04-21T18:10:51.704Z,8.40
2023-04-21T18:13:19.503Z,7.20
2023-04-21T18:15:47.456Z,9.00
2023-04-21T18:18:15.414Z,11.90
2023-04-21T18:20:43.405Z,12.60
2023-04-21T18:23:11.636Z,7.20
2023-04-21T18:25:42.630Z,11.60
2023-04-21T18:28:13.011Z,12.00
2023-04-21T18:30:41.733Z,5.30
2023-04-21T18:33:11.726Z,8.80
2023-04-21T18:35:42.010Z,10.50
2023-04-21T18:38:11.898Z,9.80
2023-04-21T18:40:40.927Z,9.50
2023-04-21T18:43:10.749Z,10.70
2023-04-21T18:45:38.837Z,9.80
2023-04-21T18:48:06.789Z,7.40
2023-04-21T18:50:39.877Z,13.60
2023-04-21T18:53:09.237Z,12.90
2023-04-21T18:55:37.801Z,8.60
2023-04-21T18:58:07.619Z,9.40
2023-04-21T19:00:38.977Z,11.80
2023-04-21T19:03:08.448Z,18.60
2023-04-21T19:05:37.803Z,22.60
2023-04-21T19:08:06.066Z,18.10
2023-04-21T19:10:38.014Z,21.70
2023-04-21T19:13:06.366Z,30.90
2023-04-21T19:15:35.225Z,46.00
2023-04-21T19:18:03.180Z,61.40
2023-04-21T19:20:32.495Z,51.20
2023-04-21T19:23:00.477Z,48.20
2023-04-21T19:25:28.376Z,52.90
2023-04-21T19:27:56.424Z,59.30
2023-04-21T19:30:24.344Z,87.50
2023-04-21T19:32:52.355Z,71.70
2023-04-21T19:35:21.150Z,41.40
2023-04-21T19:37:49.708Z,40.60
2023-04-21T19:40:17.568Z,48.70
2023-04-21T19:42:45.639Z,57.80
2023-04-21T19:45:13.622Z,54.50
2023-04-21T19:47:41.541Z,46.50
2023-04-21T19:50:09.900Z,48.80
2023-04-21T19:52:37.748Z,50.00
2023-04-21T19:55:05.819Z,40.80
2023-04-21T19:57:33.793Z,47.90
2023-04-21T20:00:02.230Z,65.80
2023-04-21T20:02:40.832Z,38.00
2023-04-21T20:05:09.527Z,35.10
2023-04-21T20:07:38.273Z,37.20
2023-04-21T20:10:07.286Z,33.30
2023-04-21T20:12:35.463Z,40.40
2023-04-21T20:15:03.492Z,52.20
2023-04-21T20:17:31.921Z,57.60
2023-04-21T20:19:59.938Z,41.80
2023-04-21T20:22:27.869Z,37.00
2023-04-21T20:24:58.128Z,40.00
2023-04-21T20:27:26.980Z,37.70
2023-04-21T20:29:54.893Z,24.50
2023-04-21T20:32:22.837Z,29.40
2023-04-21T20:34:53.527Z,25.50
2023-04-21T20:37:23.251Z,33.40
2023-04-21T20:39:51.607Z,34.60
2023-04-21T20:42:20.182Z,36.00
2023-04-21T20:44:48.287Z,35.90
2023-04-21T20:47:17.636Z,37.20
2023-04-21T20:49:47.533Z,36.40
2023-04-21T20:52:16.069Z,76.20
2023-04-21T20:54:44.080Z,49.30
2023-04-21T20:57:12.316Z,31.30
2023-04-21T20:59:40.603Z,30.30
2023-04-21T21:02:08.853Z,30.10
2023-04-21T21:04:37.512Z,31.50
2023-04-21T21:07:06.373Z,30.20
2023-04-21T21:09:34.488Z,32.90
2023-04-21T21:12:02.443Z,34.10
2023-04-21T21:14:30.370Z,35.30
2023-04-21T21:16:58.586Z,42.50
2023-04-21T21:19:26.884Z,53.70
2023-04-21T21:21:54.811Z,56.60
2023-04-21T21:24:22.709Z,62.40
2023-04-21T21:26:50.972Z,58.60
2023-04-21T21:29:18.926Z,62.30
2023-04-21T21:31:46.780Z,66.20
2023-04-21T21:34:14.656Z,64.50
2023-04-21T21:36:42.868Z,64.40
2023-04-21T21:39:11.511Z,67.30
2023-04-21T21:41:39.882Z,59.40
2023-04-21T21:44:08.043Z,62.80
2023-04-21T21:46:36.504Z,63.80
2023-04-21T21:49:04.436Z,69.70
2023-04-21T21:51:32.503Z,69.30
2023-04-21T21:54:00.518Z,81.80
2023-04-21T21:56:28.624Z,85.10
2023-04-21T21:58:56.644Z,83.30
2023-04-21T22:01:24.585Z,69.80
2023-04-21T22:03:53.865Z,75.10
2023-04-21T22:06:26.803Z,66.90
2023-04-21T22:08:55.194Z,61.60
2023-04-21T22:11:23.284Z,55.40
2023-04-21T22:13:51.583Z,59.10
2023-04-21T22:16:19.474Z,56.20
2023-04-21T22:18:48.439Z,64.20
2023-04-21T22:21:16.514Z,60.50
2023-04-21T22:23:44.433Z,69.50
2023-04-21T22:26:12.332Z,63.20
2023-04-21T22:28:41.942Z,57.20
2023-04-21T22:31:10.625Z,65.90
2023-04-21T22:33:38.606Z,59.60
2023-04-21T22:36:08.524Z,55.30
2023-04-21T22:38:38.593Z,57.30
2023-04-21T22:41:06.797Z,58.00
2023-04-21T22:43:34.927Z,63.40
2023-04-21T22:46:02.962Z,57.20
2023-04-21T22:48:32.833Z,56.50
2023-04-21T22:51:01.808Z,62.10
2023-04-21T22:53:29.864Z,57.80
2023-04-21T22:55:57.849Z,55.40
2023-04-21T22:58:26.504Z,57.60
2023-04-21T23:00:54.511Z,60.10
2023-04-21T23:03:23.732Z,54.90
2023-04-21T23:05:51.900Z,55.70
2023-04-21T23:08:19.754Z,52.90
2023-04-21T23:10:47.717Z,55.20
2023-04-21T23:13:15.658Z,58.30
2023-04-21T23:15:43.489Z,44.80
2023-04-21T23:18:11.470Z,45.10
2023-04-21T23:20:39.496Z,48.20
2023-04-21T23:23:07.446Z,48.10
2023-04-21T23:25:36.266Z,44.20
2023-04-21T23:28:04.116Z,52.90
2023-04-21T23:30:32.099Z,47.00
2023-04-21T23:33:00.163Z,49.10
2023-04-21T23:35:28.267Z,52.70
2023-04-21T23:37:56.252Z,60.90
2023-04-21T23:40:24.278Z,59.20
2023-04-21T23:42:52.135Z,64.70
2023-04-21T23:45:20.095Z,62.00
2023-04-21T23:47:48.096Z,62.10
2023-04-21T23:50:15.954Z,62.40
2023-04-21T23:52:44.843Z,56.00
2023-04-21T23:55:12.806Z,54.20
2023-04-21T23:57:40.746Z,52.30
